Longwood, New York
Current Conditions -  °F | °C
As of 12:51 PM on Thursday 29 Jan 2015 (Local Time) from KLGA Reporting Station
Broken Clouds Broken Clouds  
Wind Chill: 23°   Ceiling: 25000
Heat Index: 30°   Visibility: 10mi
Dew Point: 11°   Wind: 7mph
Humidity: 45%   Direction: 50°NE
Pressure: 30.23"   Gusts: NA
Location:  40.8256°N, 73.8935°W
Report Text: KLGA 291751Z 05006KT 10SM BKN250 M01/M12 A3023 RMK AO2 SLP237 4/006 933009 T10111117 11011 21061 58030
Loading
Personal Weather Stations






























Interactive Weather Map New forecast layout! Learn more

10-Day Weather Forecast

Advertisements
Track Severe Weather on mobile